Sacramento, California
Current Conditions -  °F | °C
As of 4:53 AM on Wednesday 26 Nov 2014 (Local Time) from KSAC Reporting Station
Haze Haze  
Wind Chill:   Ceiling: Unl
Heat Index:   Visibility: 1.2mi
Dew Point:   Wind: 0mph
Humidity: 97%   Direction: NA
Pressure: 30.35"   Gusts: NA
Location:  38.58°N, 121.49°W
Report Text: KSAC 261253Z AUTO 00000KT 1 1/4SM BR CLR 04/04 A3035 RMK AO2 SLP275 T00440039
Loading
Personal Weather Stations






























Interactive Weather Map New forecast layout! Learn more

10-Day Weather Forecast

Advertisements
Track Severe Weather on mobile